sensor_id;sensor_type;location;lat;lon;timestamp;P1;durP1;ratioP1;P2;durP2;ratioP2
5085;SDS011;4715;51.660;7.082;2024-01-16T00:00:37;23.70;;;10.53;;
5085;SDS011;4715;51.660;7.082;2024-01-16T00:02:59;12.07;;;9.10;;
5085;SDS011;4715;51.660;7.082;2024-01-16T00:05:20;14.50;;;9.50;;
5085;SDS011;4715;51.660;7.082;2024-01-16T00:07:43;13.53;;;9.27;;
5085;SDS011;4715;51.660;7.082;2024-01-16T00:10:06;12.83;;;8.07;;
5085;SDS011;4715;51.660;7.082;2024-01-16T00:12:29;17.00;;;8.90;;
5085;SDS011;4715;51.660;7.082;2024-01-16T00:14:50;15.80;;;9.20;;
5085;SDS011;4715;51.660;7.082;2024-01-16T00:17:13;12.57;;;8.53;;
5085;SDS011;4715;51.660;7.082;2024-01-16T00:19:35;11.60;;;8.93;;
5085;SDS011;4715;51.660;7.082;2024-01-16T00:21:56;15.30;;;8.07;;
5085;SDS011;4715;51.660;7.082;2024-01-16T00:24:21;16.53;;;9.50;;
5085;SDS011;4715;51.660;7.082;2024-01-16T00:26:43;13.47;;;7.70;;
5085;SDS011;4715;51.660;7.082;2024-01-16T00:29:06;13.00;;;8.07;;
5085;SDS011;4715;51.660;7.082;2024-01-16T00:31:29;8.70;;;7.23;;
5085;SDS011;4715;51.660;7.082;2024-01-16T00:33:51;16.30;;;8.33;;
5085;SDS011;4715;51.660;7.082;2024-01-16T00:36:13;9.83;;;8.00;;
5085;SDS011;4715;51.660;7.082;2024-01-16T00:38:35;18.53;;;7.10;;
5085;SDS011;4715;51.660;7.082;2024-01-16T00:40:58;16.27;;;6.77;;
5085;SDS011;4715;51.660;7.082;2024-01-16T00:43:20;12.20;;;7.40;;
5085;SDS011;4715;51.660;7.082;2024-01-16T00:45:41;10.57;;;7.40;;
5085;SDS011;4715;51.660;7.082;2024-01-16T00:48:03;13.03;;;6.70;;
5085;SDS011;4715;51.660;7.082;2024-01-16T00:50:28;10.90;;;6.40;;
5085;SDS011;4715;51.660;7.082;2024-01-16T00:52:51;13.70;;;6.77;;
5085;SDS011;4715;51.660;7.082;2024-01-16T00:55:13;7.90;;;6.13;;
5085;SDS011;4715;51.660;7.082;2024-01-16T00:57:36;11.40;;;6.90;;
5085;SDS011;4715;51.660;7.082;2024-01-16T00:59:59;12.60;;;7.27;;
5085;SDS011;4715;51.660;7.082;2024-01-16T01:02:24;12.23;;;7.30;;
5085;SDS011;4715;51.660;7.082;2024-01-16T01:04:46;12.30;;;6.87;;
5085;SDS011;4715;51.660;7.082;2024-01-16T01:07:08;11.00;;;6.13;;
5085;SDS011;4715;51.660;7.082;2024-01-16T01:09:31;12.93;;;7.00;;
5085;SDS011;4715;51.660;7.082;2024-01-16T01:11:54;11.70;;;7.70;;
5085;SDS011;4715;51.660;7.082;2024-01-16T01:14:17;7.40;;;6.23;;
5085;SDS011;4715;51.660;7.082;2024-01-16T01:16:39;21.03;;;8.00;;
5085;SDS011;4715;51.660;7.082;2024-01-16T01:19:02;10.37;;;6.97;;
5085;SDS011;4715;51.660;7.082;2024-01-16T01:21:24;17.63;;;9.30;;
5085;SDS011;4715;51.660;7.082;2024-01-16T01:23:47;13.93;;;7.93;;
5085;SDS011;4715;51.660;7.082;2024-01-16T01:26:09;12.03;;;9.30;;
5085;SDS011;4715;51.660;7.082;2024-01-16T01:28:33;19.27;;;9.47;;
5085;SDS011;4715;51.660;7.082;2024-01-16T01:30:56;12.80;;;8.30;;
5085;SDS011;4715;51.660;7.082;2024-01-16T01:33:18;10.90;;;7.97;;
5085;SDS011;4715;51.660;7.082;2024-01-16T01:35:40;10.23;;;6.47;;
5085;SDS011;4715;51.660;7.082;2024-01-16T01:38:04;11.63;;;8.00;;
5085;SDS011;4715;51.660;7.082;2024-01-16T01:40:27;13.77;;;8.00;;
5085;SDS011;4715;51.660;7.082;2024-01-16T01:42:49;9.47;;;6.73;;
5085;SDS011;4715;51.660;7.082;2024-01-16T01:45:11;13.73;;;7.47;;
5085;SDS011;4715;51.660;7.082;2024-01-16T01:47:35;6.23;;;5.37;;
5085;SDS011;4715;51.660;7.082;2024-01-16T01:49:57;7.80;;;5.50;;
5085;SDS011;4715;51.660;7.082;2024-01-16T01:52:20;7.60;;;4.30;;
5085;SDS011;4715;51.660;7.082;2024-01-16T01:54:42;9.33;;;5.20;;
5085;SDS011;4715;51.660;7.082;2024-01-16T01:57:04;12.80;;;5.80;;
5085;SDS011;4715;51.660;7.082;2024-01-16T01:59:29;9.83;;;5.00;;
5085;SDS011;4715;51.660;7.082;2024-01-16T02:01:52;7.73;;;4.87;;
5085;SDS011;4715;51.660;7.082;2024-01-16T02:04:16;6.03;;;4.50;;
5085;SDS011;4715;51.660;7.082;2024-01-16T02:06:40;6.20;;;4.57;;
5085;SDS011;4715;51.660;7.082;2024-01-16T02:09:02;10.93;;;5.40;;
5085;SDS011;4715;51.660;7.082;2024-01-16T02:11:27;6.27;;;5.10;;
5085;SDS011;4715;51.660;7.082;2024-01-16T02:13:48;13.50;;;6.50;;
5085;SDS011;4715;51.660;7.082;2024-01-16T02:16:19;8.77;;;5.20;;
5085;SDS011;4715;51.660;7.082;2024-01-16T02:18:42;7.03;;;4.87;;
5085;SDS011;4715;51.660;7.082;2024-01-16T02:21:05;6.63;;;5.90;;
5085;SDS011;4715;51.660;7.082;2024-01-16T02:23:29;11.40;;;6.10;;
5085;SDS011;4715;51.660;7.082;2024-01-16T02:25:52;8.33;;;5.87;;
5085;SDS011;4715;51.660;7.082;2024-01-16T02:28:13;5.17;;;4.73;;
5085;SDS011;4715;51.660;7.082;2024-01-16T02:30:35;13.50;;;5.10;;
5085;SDS011;4715;51.660;7.082;2024-01-16T02:32:57;6.57;;;5.63;;
5085;SDS011;4715;51.660;7.082;2024-01-16T02:35:18;5.87;;;5.33;;
5085;SDS011;4715;51.660;7.082;2024-01-16T02:37:40;12.30;;;5.10;;
5085;SDS011;4715;51.660;7.082;2024-01-16T02:40:05;6.10;;;5.07;;
5085;SDS011;4715;51.660;7.082;2024-01-16T02:42:27;17.03;;;5.23;;
5085;SDS011;4715;51.660;7.082;2024-01-16T02:44:51;18.40;;;5.87;;
5085;SDS011;4715;51.660;7.082;2024-01-16T02:47:16;7.00;;;5.50;;
5085;SDS011;4715;51.660;7.082;2024-01-16T02:49:37;7.50;;;4.87;;
5085;SDS011;4715;51.660;7.082;2024-01-16T02:52:00;12.87;;;6.20;;
5085;SDS011;4715;51.660;7.082;2024-01-16T02:54:21;8.23;;;6.43;;
5085;SDS011;4715;51.660;7.082;2024-01-16T02:56:45;10.80;;;5.20;;
5085;SDS011;4715;51.660;7.082;2024-01-16T02:59:07;7.27;;;5.40;;
5085;SDS011;4715;51.660;7.082;2024-01-16T03:01:29;7.73;;;4.77;;
5085;SDS011;4715;51.660;7.082;2024-01-16T03:03:54;7.03;;;5.40;;
5085;SDS011;4715;51.660;7.082;2024-01-16T03:06:23;5.23;;;4.37;;
5085;SDS011;4715;51.660;7.082;2024-01-16T03:08:45;9.00;;;5.20;;
5085;SDS011;4715;51.660;7.082;2024-01-16T03:11:07;7.20;;;5.13;;
5085;SDS011;4715;51.660;7.082;2024-01-16T03:13:32;7.00;;;4.60;;
5085;SDS011;4715;51.660;7.082;2024-01-16T03:15:54;7.80;;;4.70;;
5085;SDS011;4715;51.660;7.082;2024-01-16T03:18:16;9.33;;;5.07;;
5085;SDS011;4715;51.660;7.082;2024-01-16T03:20:38;10.07;;;6.33;;
5085;SDS011;4715;51.660;7.082;2024-01-16T03:23:00;7.10;;;5.00;;
5085;SDS011;4715;51.660;7.082;2024-01-16T03:25:24;7.70;;;5.43;;
5085;SDS011;4715;51.660;7.082;2024-01-16T03:27:46;8.03;;;6.37;;
5085;SDS011;4715;51.660;7.082;2024-01-16T03:30:10;11.30;;;6.43;;
5085;SDS011;4715;51.660;7.082;2024-01-16T03:32:32;9.57;;;5.43;;
5085;SDS011;4715;51.660;7.082;2024-01-16T03:34:55;19.73;;;7.20;;
5085;SDS011;4715;51.660;7.082;2024-01-16T03:37:17;9.60;;;6.97;;
5085;SDS011;4715;51.660;7.082;2024-01-16T03:39:39;9.63;;;7.30;;
5085;SDS011;4715;51.660;7.082;2024-01-16T03:42:04;12.80;;;6.73;;
5085;SDS011;4715;51.660;7.082;2024-01-16T03:44:26;7.67;;;6.13;;
5085;SDS011;4715;51.660;7.082;2024-01-16T03:46:50;10.10;;;6.57;;
5085;SDS011;4715;51.660;7.082;2024-01-16T03:49:11;12.27;;;6.83;;
5085;SDS011;4715;51.660;7.082;2024-01-16T03:51:33;11.03;;;7.47;;
5085;SDS011;4715;51.660;7.082;2024-01-16T03:53:56;10.33;;;7.90;;
5085;SDS011;4715;51.660;7.082;2024-01-16T03:56:18;12.20;;;7.33;;
5085;SDS011;4715;51.660;7.082;2024-01-16T03:58:40;10.33;;;7.03;;
5085;SDS011;4715;51.660;7.082;2024-01-16T04:01:02;10.77;;;8.00;;
5085;SDS011;4715;51.660;7.082;2024-01-16T04:03:26;10.60;;;7.50;;
5085;SDS011;4715;51.660;7.082;2024-01-16T04:05:48;9.27;;;6.00;;
5085;SDS011;4715;51.660;7.082;2024-01-16T04:08:12;13.37;;;7.50;;
5085;SDS011;4715;51.660;7.082;2024-01-16T04:10:34;9.37;;;7.53;;
5085;SDS011;4715;51.660;7.082;2024-01-16T04:12:59;12.23;;;8.40;;
5085;SDS011;4715;51.660;7.082;2024-01-16T04:15:24;8.67;;;7.33;;
5085;SDS011;4715;51.660;7.082;2024-01-16T04:17:46;8.47;;;6.03;;
5085;SDS011;4715;51.660;7.082;2024-01-16T04:20:10;11.60;;;6.90;;
5085;SDS011;4715;51.660;7.082;2024-01-16T04:22:32;10.33;;;6.57;;
5085;SDS011;4715;51.660;7.082;2024-01-16T04:24:54;12.00;;;7.07;;
5085;SDS011;4715;51.660;7.082;2024-01-16T04:27:16;13.30;;;7.00;;
5085;SDS011;4715;51.660;7.082;2024-01-16T04:29:38;7.73;;;6.93;;
5085;SDS011;4715;51.660;7.082;2024-01-16T04:32:01;6.87;;;6.17;;
5085;SDS011;4715;51.660;7.082;2024-01-16T04:34:23;6.67;;;6.07;;
5085;SDS011;4715;51.660;7.082;2024-01-16T04:36:46;11.73;;;6.70;;
5085;SDS011;4715;51.660;7.082;2024-01-16T04:39:08;11.70;;;7.37;;
5085;SDS011;4715;51.660;7.082;2024-01-16T04:41:32;15.20;;;7.90;;
5085;SDS011;4715;51.660;7.082;2024-01-16T04:43:54;10.43;;;7.17;;
5085;SDS011;4715;51.660;7.082;2024-01-16T04:46:16;9.60;;;5.90;;
5085;SDS011;4715;51.660;7.082;2024-01-16T04:48:40;13.93;;;6.53;;
5085;SDS011;4715;51.660;7.082;2024-01-16T04:51:02;13.50;;;7.40;;
5085;SDS011;4715;51.660;7.082;2024-01-16T04:53:25;9.13;;;6.67;;
5085;SDS011;4715;51.660;7.082;2024-01-16T04:55:47;10.37;;;7.90;;
5085;SDS011;4715;51.660;7.082;2024-01-16T04:58:09;11.70;;;7.37;;
5085;SDS011;4715;51.660;7.082;2024-01-16T05:00:31;14.40;;;7.10;;
5085;SDS011;4715;51.660;7.082;2024-01-16T05:02:53;12.90;;;7.30;;
5085;SDS011;4715;51.660;7.082;2024-01-16T05:05:15;9.77;;;7.07;;
5085;SDS011;4715;51.660;7.082;2024-01-16T05:07:37;11.03;;;7.70;;
5085;SDS011;4715;51.660;7.082;2024-01-16T05:10:00;11.47;;;7.03;;
5085;SDS011;4715;51.660;7.082;2024-01-16T05:12:22;14.40;;;7.83;;
5085;SDS011;4715;51.660;7.082;2024-01-16T05:14:44;12.43;;;6.93;;
5085;SDS011;4715;51.660;7.082;2024-01-16T05:17:06;12.70;;;7.20;;
5085;SDS011;4715;51.660;7.082;2024-01-16T05:19:28;8.10;;;6.77;;
5085;SDS011;4715;51.660;7.082;2024-01-16T05:21:50;9.47;;;7.20;;
5085;SDS011;4715;51.660;7.082;2024-01-16T05:24:13;12.27;;;6.07;;
5085;SDS011;4715;51.660;7.082;2024-01-16T05:26:36;9.40;;;7.13;;
5085;SDS011;4715;51.660;7.082;2024-01-16T05:28:58;20.20;;;7.63;;
5085;SDS011;4715;51.660;7.082;2024-01-16T05:31:19;17.77;;;7.67;;
5085;SDS011;4715;51.660;7.082;2024-01-16T05:33:40;8.50;;;7.47;;
5085;SDS011;4715;51.660;7.082;2024-01-16T05:36:03;10.50;;;7.30;;
5085;SDS011;4715;51.660;7.082;2024-01-16T05:38:26;13.77;;;6.83;;
5085;SDS011;4715;51.660;7.082;2024-01-16T05:40:48;11.73;;;6.53;;
5085;SDS011;4715;51.660;7.082;2024-01-16T05:43:12;7.87;;;6.23;;
5085;SDS011;4715;51.660;7.082;2024-01-16T05:45:35;8.53;;;5.93;;
5085;SDS011;4715;51.660;7.082;2024-01-16T05:47:57;9.00;;;6.00;;
5085;SDS011;4715;51.660;7.082;2024-01-16T05:50:19;6.67;;;5.47;;
5085;SDS011;4715;51.660;7.082;2024-01-16T05:52:41;11.83;;;5.10;;
5085;SDS011;4715;51.660;7.082;2024-01-16T05:55:03;8.47;;;5.47;;
5085;SDS011;4715;51.660;7.082;2024-01-16T05:57:26;6.93;;;5.07;;
5085;SDS011;4715;51.660;7.082;2024-01-16T05:59:49;7.47;;;5.80;;
5085;SDS011;4715;51.660;7.082;2024-01-16T06:02:11;10.97;;;5.80;;
5085;SDS011;4715;51.660;7.082;2024-01-16T06:04:33;8.97;;;5.43;;
5085;SDS011;4715;51.660;7.082;2024-01-16T06:06:56;8.87;;;4.57;;
5085;SDS011;4715;51.660;7.082;2024-01-16T06:09:18;9.60;;;5.13;;
5085;SDS011;4715;51.660;7.082;2024-01-16T06:11:41;6.10;;;5.20;;
5085;SDS011;4715;51.660;7.082;2024-01-16T06:14:04;4.67;;;4.27;;
5085;SDS011;4715;51.660;7.082;2024-01-16T06:16:27;6.77;;;5.00;;
5085;SDS011;4715;51.660;7.082;2024-01-16T06:18:49;7.47;;;4.90;;
5085;SDS011;4715;51.660;7.082;2024-01-16T06:21:11;4.43;;;4.07;;
5085;SDS011;4715;51.660;7.082;2024-01-16T06:23:34;8.13;;;5.13;;
5085;SDS011;4715;51.660;7.082;2024-01-16T06:25:56;9.93;;;5.77;;
5085;SDS011;4715;51.660;7.082;2024-01-16T06:28:20;11.10;;;5.90;;
5085;SDS011;4715;51.660;7.082;2024-01-16T06:30:45;8.40;;;5.77;;
5085;SDS011;4715;51.660;7.082;2024-01-16T06:33:08;12.90;;;5.97;;
5085;SDS011;4715;51.660;7.082;2024-01-16T06:35:31;7.23;;;5.50;;
5085;SDS011;4715;51.660;7.082;2024-01-16T06:37:53;7.40;;;4.90;;
5085;SDS011;4715;51.660;7.082;2024-01-16T06:40:14;8.70;;;5.27;;
5085;SDS011;4715;51.660;7.082;2024-01-16T06:42:36;9.10;;;5.73;;
5085;SDS011;4715;51.660;7.082;2024-01-16T06:44:58;10.17;;;6.43;;
5085;SDS011;4715;51.660;7.082;2024-01-16T06:47:20;13.73;;;7.47;;
5085;SDS011;4715;51.660;7.082;2024-01-16T06:49:45;10.90;;;6.90;;
5085;SDS011;4715;51.660;7.082;2024-01-16T06:52:07;6.43;;;5.53;;
5085;SDS011;4715;51.660;7.082;2024-01-16T06:54:30;12.97;;;6.80;;
5085;SDS011;4715;51.660;7.082;2024-01-16T06:56:52;11.90;;;8.50;;
5085;SDS011;4715;51.660;7.082;2024-01-16T06:59:14;14.73;;;8.27;;
5085;SDS011;4715;51.660;7.082;2024-01-16T07:01:39;21.13;;;9.50;;
5085;SDS011;4715;51.660;7.082;2024-01-16T07:04:01;17.10;;;9.20;;
5085;SDS011;4715;51.660;7.082;2024-01-16T07:06:25;14.80;;;9.27;;
5085;SDS011;4715;51.660;7.082;2024-01-16T07:08:48;19.93;;;10.20;;
5085;SDS011;4715;51.660;7.082;2024-01-16T07:11:10;22.30;;;11.13;;
5085;SDS011;4715;51.660;7.082;2024-01-16T07:13:33;20.33;;;10.63;;
5085;SDS011;4715;51.660;7.082;2024-01-16T07:15:55;21.37;;;11.67;;
5085;SDS011;4715;51.660;7.082;2024-01-16T07:18:17;18.70;;;10.73;;
5085;SDS011;4715;51.660;7.082;2024-01-16T07:20:39;27.90;;;12.53;;
5085;SDS011;4715;51.660;7.082;2024-01-16T07:23:04;17.90;;;11.40;;
5085;SDS011;4715;51.660;7.082;2024-01-16T07:25:29;20.53;;;11.63;;
5085;SDS011;4715;51.660;7.082;2024-01-16T07:27:53;16.63;;;12.60;;
5085;SDS011;4715;51.660;7.082;2024-01-16T07:30:15;21.60;;;13.03;;
5085;SDS011;4715;51.660;7.082;2024-01-16T07:32:37;25.90;;;13.10;;
5085;SDS011;4715;51.660;7.082;2024-01-16T07:35:01;20.57;;;12.97;;
5085;SDS011;4715;51.660;7.082;2024-01-16T07:37:25;21.10;;;13.50;;
5085;SDS011;4715;51.660;7.082;2024-01-16T07:39:49;24.60;;;12.80;;
5085;SDS011;4715;51.660;7.082;2024-01-16T07:42:11;24.63;;;14.27;;
5085;SDS011;4715;51.660;7.082;2024-01-16T07:44:33;24.33;;;16.97;;
5085;SDS011;4715;51.660;7.082;2024-01-16T07:46:56;26.07;;;14.90;;
5085;SDS011;4715;51.660;7.082;2024-01-16T07:49:18;30.00;;;15.73;;
5085;SDS011;4715;51.660;7.082;2024-01-16T07:51:40;24.47;;;16.23;;
5085;SDS011;4715;51.660;7.082;2024-01-16T07:54:05;18.93;;;13.27;;
5085;SDS011;4715;51.660;7.082;2024-01-16T07:56:30;21.90;;;13.97;;
5085;SDS011;4715;51.660;7.082;2024-01-16T07:58:52;26.53;;;12.53;;
5085;SDS011;4715;51.660;7.082;2024-01-16T08:01:14;15.90;;;12.40;;
5085;SDS011;4715;51.660;7.082;2024-01-16T08:03:36;21.93;;;11.17;;
5085;SDS011;4715;51.660;7.082;2024-01-16T08:06:00;18.90;;;11.30;;
5085;SDS011;4715;51.660;7.082;2024-01-16T08:08:29;16.90;;;9.70;;
5085;SDS011;4715;51.660;7.082;2024-01-16T08:10:53;17.10;;;10.13;;
5085;SDS011;4715;51.660;7.082;2024-01-16T08:13:17;11.27;;;8.90;;
5085;SDS011;4715;51.660;7.082;2024-01-16T08:15:40;15.07;;;9.30;;
5085;SDS011;4715;51.660;7.082;2024-01-16T08:18:02;13.10;;;9.50;;
5085;SDS011;4715;51.660;7.082;2024-01-16T08:20:25;16.37;;;8.60;;
5085;SDS011;4715;51.660;7.082;2024-01-16T08:22:48;14.63;;;8.07;;
5085;SDS011;4715;51.660;7.082;2024-01-16T08:25:11;18.03;;;9.03;;
5085;SDS011;4715;51.660;7.082;2024-01-16T08:27:32;11.57;;;7.50;;
5085;SDS011;4715;51.660;7.082;2024-01-16T08:29:56;12.77;;;6.73;;
5085;SDS011;4715;51.660;7.082;2024-01-16T08:32:21;11.67;;;6.90;;
5085;SDS011;4715;51.660;7.082;2024-01-16T08:34:43;12.53;;;7.37;;
5085;SDS011;4715;51.660;7.082;2024-01-16T08:37:08;18.30;;;6.80;;
5085;SDS011;4715;51.660;7.082;2024-01-16T08:39:30;13.00;;;7.20;;
5085;SDS011;4715;51.660;7.082;2024-01-16T08:41:54;15.23;;;7.40;;
5085;SDS011;4715;51.660;7.082;2024-01-16T08:44:19;10.00;;;7.27;;
5085;SDS011;4715;51.660;7.082;2024-01-16T08:46:42;11.77;;;6.70;;
5085;SDS011;4715;51.660;7.082;2024-01-16T08:49:04;9.57;;;6.43;;
5085;SDS011;4715;51.660;7.082;2024-01-16T08:51:26;15.23;;;6.80;;
5085;SDS011;4715;51.660;7.082;2024-01-16T08:53:47;10.77;;;6.57;;
5085;SDS011;4715;51.660;7.082;2024-01-16T08:56:10;11.30;;;5.90;;
5085;SDS011;4715;51.660;7.082;2024-01-16T08:58:32;16.67;;;6.47;;
5085;SDS011;4715;51.660;7.082;2024-01-16T09:00:56;8.30;;;5.53;;
5085;SDS011;4715;51.660;7.082;2024-01-16T09:03:19;15.83;;;5.77;;
5085;SDS011;4715;51.660;7.082;2024-01-16T09:05:41;8.07;;;5.97;;
5085;SDS011;4715;51.660;7.082;2024-01-16T09:08:03;11.50;;;4.97;;
5085;SDS011;4715;51.660;7.082;2024-01-16T09:10:28;6.10;;;5.53;;
5085;SDS011;4715;51.660;7.082;2024-01-16T09:12:51;12.20;;;6.00;;
5085;SDS011;4715;51.660;7.082;2024-01-16T09:15:15;10.00;;;5.07;;
5085;SDS011;4715;51.660;7.082;2024-01-16T09:17:38;6.93;;;4.50;;
5085;SDS011;4715;51.660;7.082;2024-01-16T09:20:02;13.83;;;4.40;;
5085;SDS011;4715;51.660;7.082;2024-01-16T09:22:25;16.57;;;5.10;;
5085;SDS011;4715;51.660;7.082;2024-01-16T09:24:47;10.20;;;4.57;;
5085;SDS011;4715;51.660;7.082;2024-01-16T09:27:10;9.10;;;5.53;;
5085;SDS011;4715;51.660;7.082;2024-01-16T09:29:35;9.20;;;4.13;;
5085;SDS011;4715;51.660;7.082;2024-01-16T09:31:58;13.00;;;4.50;;
5085;SDS011;4715;51.660;7.082;2024-01-16T09:34:21;7.93;;;4.93;;
5085;SDS011;4715;51.660;7.082;2024-01-16T09:36:44;9.87;;;5.20;;
5085;SDS011;4715;51.660;7.082;2024-01-16T09:39:06;7.73;;;4.50;;
5085;SDS011;4715;51.660;7.082;2024-01-16T09:41:30;6.33;;;4.93;;
5085;SDS011;4715;51.660;7.082;2024-01-16T09:43:54;6.77;;;4.10;;
5085;SDS011;4715;51.660;7.082;2024-01-16T09:46:16;5.67;;;3.47;;
5085;SDS011;4715;51.660;7.082;2024-01-16T09:48:44;7.00;;;3.93;;
5085;SDS011;4715;51.660;7.082;2024-01-16T09:51:06;7.00;;;4.43;;
5085;SDS011;4715;51.660;7.082;2024-01-16T09:53:30;11.77;;;5.17;;
5085;SDS011;4715;51.660;7.082;2024-01-16T09:55:53;9.97;;;4.73;;
5085;SDS011;4715;51.660;7.082;2024-01-16T09:58:16;7.57;;;3.90;;
5085;SDS011;4715;51.660;7.082;2024-01-16T10:00:40;16.30;;;3.53;;
5085;SDS011;4715;51.660;7.082;2024-01-16T10:03:04;7.63;;;3.80;;
5085;SDS011;4715;51.660;7.082;2024-01-16T10:05:26;11.40;;;4.90;;
5085;SDS011;4715;51.660;7.082;2024-01-16T10:07:50;6.07;;;3.77;;
5085;SDS011;4715;51.660;7.082;2024-01-16T10:10:14;16.73;;;5.50;;
5085;SDS011;4715;51.660;7.082;2024-01-16T10:12:37;6.27;;;4.03;;
5085;SDS011;4715;51.660;7.082;2024-01-16T10:14:59;3.50;;;3.20;;
5085;SDS011;4715;51.660;7.082;2024-01-16T10:17:21;6.30;;;3.90;;
5085;SDS011;4715;51.660;7.082;2024-01-16T10:19:47;8.33;;;3.80;;
5085;SDS011;4715;51.660;7.082;2024-01-16T10:22:10;10.60;;;4.43;;
5085;SDS011;4715;51.660;7.082;2024-01-16T10:24:32;6.63;;;3.63;;
5085;SDS011;4715;51.660;7.082;2024-01-16T10:27:01;8.90;;;4.47;;
5085;SDS011;4715;51.660;7.082;2024-01-16T10:29:23;13.10;;;4.93;;
5085;SDS011;4715;51.660;7.082;2024-01-16T10:31:45;14.60;;;5.67;;
5085;SDS011;4715;51.660;7.082;2024-01-16T10:34:18;9.93;;;5.00;;
5085;SDS011;4715;51.660;7.082;2024-01-16T10:36:41;22.13;;;5.80;;
5085;SDS011;4715;51.660;7.082;2024-01-16T10:39:03;12.77;;;5.67;;
5085;SDS011;4715;51.660;7.082;2024-01-16T10:41:26;11.40;;;5.83;;
5085;SDS011;4715;51.660;7.082;2024-01-16T10:43:50;8.80;;;5.07;;
5085;SDS011;4715;51.660;7.082;2024-01-16T10:46:25;9.40;;;5.40;;
5085;SDS011;4715;51.660;7.082;2024-01-16T10:48:58;7.50;;;4.30;;
5085;SDS011;4715;51.660;7.082;2024-01-16T10:51:21;11.17;;;4.23;;
5085;SDS011;4715;51.660;7.082;2024-01-16T10:53:43;11.00;;;4.97;;
5085;SDS011;4715;51.660;7.082;2024-01-16T10:56:06;9.43;;;4.33;;
5085;SDS011;4715;51.660;7.082;2024-01-16T10:58:33;9.10;;;4.23;;
5085;SDS011;4715;51.660;7.082;2024-01-16T11:01:01;7.10;;;4.60;;
5085;SDS011;4715;51.660;7.082;2024-01-16T11:03:29;7.47;;;5.53;;
5085;SDS011;4715;51.660;7.082;2024-01-16T11:05:57;11.33;;;5.57;;
5085;SDS011;4715;51.660;7.082;2024-01-16T11:08:24;8.00;;;4.07;;
5085;SDS011;4715;51.660;7.082;2024-01-16T11:10:52;6.03;;;4.10;;
5085;SDS011;4715;51.660;7.082;2024-01-16T11:13:14;5.53;;;4.47;;
5085;SDS011;4715;51.660;7.082;2024-01-16T11:15:39;5.93;;;3.53;;
5085;SDS011;4715;51.660;7.082;2024-01-16T11:18:05;9.83;;;5.50;;
5085;SDS011;4715;51.660;7.082;2024-01-16T11:20:29;6.10;;;4.07;;
5085;SDS011;4715;51.660;7.082;2024-01-16T11:22:53;10.80;;;4.00;;
5085;SDS011;4715;51.660;7.082;2024-01-16T11:25:19;10.30;;;3.73;;
5085;SDS011;4715;51.660;7.082;2024-01-16T11:27:42;4.23;;;3.63;;
5085;SDS011;4715;51.660;7.082;2024-01-16T11:30:06;4.77;;;3.70;;
5085;SDS011;4715;51.660;7.082;2024-01-16T11:32:38;7.00;;;4.20;;
5085;SDS011;4715;51.660;7.082;2024-01-16T11:35:11;8.77;;;4.10;;
5085;SDS011;4715;51.660;7.082;2024-01-16T11:37:33;7.80;;;5.93;;
5085;SDS011;4715;51.660;7.082;2024-01-16T11:42:46;8.23;;;4.87;;
5085;SDS011;4715;51.660;7.082;2024-01-16T11:45:09;13.90;;;5.13;;
5085;SDS011;4715;51.660;7.082;2024-01-16T11:48:23;9.63;;;4.50;;
5085;SDS011;4715;51.660;7.082;2024-01-16T11:50:46;10.10;;;4.57;;
5085;SDS011;4715;51.660;7.082;2024-01-16T11:53:08;7.57;;;4.20;;
5085;SDS011;4715;51.660;7.082;2024-01-16T11:55:31;10.67;;;3.60;;
5085;SDS011;4715;51.660;7.082;2024-01-16T11:57:59;6.70;;;4.20;;
5085;SDS011;4715;51.660;7.082;2024-01-16T12:00:41;13.93;;;6.20;;
5085;SDS011;4715;51.660;7.082;2024-01-16T12:03:08;8.10;;;5.10;;
5085;SDS011;4715;51.660;7.082;2024-01-16T12:05:31;10.40;;;4.53;;
5085;SDS011;4715;51.660;7.082;2024-01-16T12:07:54;9.40;;;3.93;;
5085;SDS011;4715;51.660;7.082;2024-01-16T12:10:17;5.57;;;4.37;;
5085;SDS011;4715;51.660;7.082;2024-01-16T12:12:40;7.67;;;4.60;;
5085;SDS011;4715;51.660;7.082;2024-01-16T12:15:03;8.20;;;4.33;;
5085;SDS011;4715;51.660;7.082;2024-01-16T12:17:26;8.33;;;4.63;;
5085;SDS011;4715;51.660;7.082;2024-01-16T12:19:49;12.00;;;4.87;;
5085;SDS011;4715;51.660;7.082;2024-01-16T12:22:13;6.40;;;4.00;;
5085;SDS011;4715;51.660;7.082;2024-01-16T12:24:40;14.27;;;4.70;;
5085;SDS011;4715;51.660;7.082;2024-01-16T12:27:03;4.73;;;4.07;;
5085;SDS011;4715;51.660;7.082;2024-01-16T12:29:25;5.50;;;4.37;;
5085;SDS011;4715;51.660;7.082;2024-01-16T12:31:49;8.53;;;3.67;;
5085;SDS011;4715;51.660;7.082;2024-01-16T12:34:11;4.90;;;4.40;;
5085;SDS011;4715;51.660;7.082;2024-01-16T12:36:33;7.33;;;5.27;;
5085;SDS011;4715;51.660;7.082;2024-01-16T12:38:57;14.20;;;4.50;;
5085;SDS011;4715;51.660;7.082;2024-01-16T12:41:21;6.90;;;4.10;;
5085;SDS011;4715;51.660;7.082;2024-01-16T12:43:44;5.10;;;3.63;;
5085;SDS011;4715;51.660;7.082;2024-01-16T12:46:12;8.20;;;4.43;;
5085;SDS011;4715;51.660;7.082;2024-01-16T12:48:35;13.23;;;4.90;;
5085;SDS011;4715;51.660;7.082;2024-01-16T12:50:59;7.97;;;4.47;;
5085;SDS011;4715;51.660;7.082;2024-01-16T12:53:23;6.97;;;4.10;;
5085;SDS011;4715;51.660;7.082;2024-01-16T12:55:45;10.90;;;4.90;;
5085;SDS011;4715;51.660;7.082;2024-01-16T12:58:15;5.27;;;4.80;;
5085;SDS011;4715;51.660;7.082;2024-01-16T13:00:39;5.60;;;3.77;;
5085;SDS011;4715;51.660;7.082;2024-01-16T13:03:01;4.23;;;3.43;;
5085;SDS011;4715;51.660;7.082;2024-01-16T13:05:29;6.60;;;4.40;;
5085;SDS011;4715;51.660;7.082;2024-01-16T13:08:00;4.13;;;3.33;;
5085;SDS011;4715;51.660;7.082;2024-01-16T13:10:25;6.07;;;3.53;;
5085;SDS011;4715;51.660;7.082;2024-01-16T13:12:50;6.50;;;3.70;;
5085;SDS011;4715;51.660;7.082;2024-01-16T13:15:14;5.13;;;3.73;;
5085;SDS011;4715;51.660;7.082;2024-01-16T13:17:37;6.87;;;3.90;;
5085;SDS011;4715;51.660;7.082;2024-01-16T13:20:01;4.80;;;3.57;;
5085;SDS011;4715;51.660;7.082;2024-01-16T13:22:24;9.20;;;3.70;;
5085;SDS011;4715;51.660;7.082;2024-01-16T13:24:46;4.93;;;3.80;;
5085;SDS011;4715;51.660;7.082;2024-01-16T13:27:08;4.50;;;3.90;;
5085;SDS011;4715;51.660;7.082;2024-01-16T13:29:33;5.03;;;3.40;;
5085;SDS011;4715;51.660;7.082;2024-01-16T13:32:02;6.30;;;3.50;;
5085;SDS011;4715;51.660;7.082;2024-01-16T13:34:25;12.50;;;6.20;;
5085;SDS011;4715;51.660;7.082;2024-01-16T13:36:48;8.87;;;4.53;;
5085;SDS011;4715;51.660;7.082;2024-01-16T13:39:13;7.43;;;4.20;;
5085;SDS011;4715;51.660;7.082;2024-01-16T13:41:36;7.03;;;3.83;;
5085;SDS011;4715;51.660;7.082;2024-01-16T13:43:58;8.30;;;4.80;;
5085;SDS011;4715;51.660;7.082;2024-01-16T13:46:25;4.60;;;4.20;;
5085;SDS011;4715;51.660;7.082;2024-01-16T13:48:48;4.10;;;3.77;;
5085;SDS011;4715;51.660;7.082;2024-01-16T13:51:10;9.13;;;5.10;;
5085;SDS011;4715;51.660;7.082;2024-01-16T13:53:32;8.03;;;4.50;;
5085;SDS011;4715;51.660;7.082;2024-01-16T13:55:57;5.20;;;4.13;;
5085;SDS011;4715;51.660;7.082;2024-01-16T13:58:19;13.90;;;4.60;;
5085;SDS011;4715;51.660;7.082;2024-01-16T14:00:44;5.10;;;4.43;;
5085;SDS011;4715;51.660;7.082;2024-01-16T14:03:07;7.20;;;5.20;;
5085;SDS011;4715;51.660;7.082;2024-01-16T14:05:30;7.40;;;5.10;;
5085;SDS011;4715;51.660;7.082;2024-01-16T14:07:52;9.83;;;5.10;;
5085;SDS011;4715;51.660;7.082;2024-01-16T14:10:15;13.13;;;5.60;;
5085;SDS011;4715;51.660;7.082;2024-01-16T14:12:37;7.43;;;4.87;;
5085;SDS011;4715;51.660;7.082;2024-01-16T14:14:59;6.90;;;4.97;;
5085;SDS011;4715;51.660;7.082;2024-01-16T14:17:23;8.47;;;4.93;;
5085;SDS011;4715;51.660;7.082;2024-01-16T14:19:46;14.40;;;5.67;;
5085;SDS011;4715;51.660;7.082;2024-01-16T14:22:09;10.90;;;5.53;;
5085;SDS011;4715;51.660;7.082;2024-01-16T14:24:31;9.30;;;5.03;;
5085;SDS011;4715;51.660;7.082;2024-01-16T14:26:54;8.00;;;4.80;;
5085;SDS011;4715;51.660;7.082;2024-01-16T14:29:16;9.80;;;5.40;;
5085;SDS011;4715;51.660;7.082;2024-01-16T14:31:40;8.80;;;4.57;;
5085;SDS011;4715;51.660;7.082;2024-01-16T14:34:03;6.97;;;4.73;;
5085;SDS011;4715;51.660;7.082;2024-01-16T14:36:24;7.20;;;4.53;;
5085;SDS011;4715;51.660;7.082;2024-01-16T14:38:49;7.37;;;5.20;;
5085;SDS011;4715;51.660;7.082;2024-01-16T14:41:11;12.57;;;6.13;;
5085;SDS011;4715;51.660;7.082;2024-01-16T14:43:33;10.63;;;7.07;;
5085;SDS011;4715;51.660;7.082;2024-01-16T14:45:55;8.37;;;5.80;;